Time;durP1;ratioP1;P1;durP2;ratioP2;P2;SDS_P1;SDS_P2;PMS_P1;PMS_P2;Temp;Humidity;BMP_temperature;BMP_pressure;BME280_temperature;BME280_humidity;BME280_pressure;Samples;Min_cycle;Max_cycle;Signal;HPM_P1;HPM_P2
2022/01/25 00:26:16;;;;;;;47.28;29.85;;;4.50;99.90;;;;;;4989074;28;20053;-76
2022/01/25 00:28:47;;;;;;;51.40;29.17;;;4.50;99.90;;;;;;5007622;28;20038;-76
2022/01/25 00:31:13;;;;;;;49.17;30.13;;;4.50;99.90;;;;;;5004044;28;20327;-76
2022/01/25 00:33:54;;;;;;;54.63;30.90;;;4.50;99.90;;;;;;5006438;28;20037;-76
2022/01/25 00:36:26;;;;;;;51.67;31.55;;;4.50;99.90;;;;;;5006717;28;20042;-75
2022/01/25 00:38:53;;;;;;;57.78;31.02;;;4.50;99.90;;;;;;5006135;28;20068;-75
2022/01/25 00:41:20;;;;;;;59.72;31.98;;;4.50;99.90;;;;;;4987661;28;20129;-75
2022/01/25 00:43:47;;;;;;;58.67;31.65;;;4.50;99.90;;;;;;5007371;28;20491;-75
2022/01/25 00:46:13;;;;;;;58.40;30.85;;;4.50;99.90;;;;;;5006804;28;20061;-75
2022/01/25 00:48:46;;;;;;;55.95;30.15;;;4.50;99.90;;;;;;5004579;28;20723;-75
2022/01/25 00:51:56;;;;;;;51.00;30.23;;;4.50;99.90;;;;;;5004171;28;20034;-75
2022/01/25 00:54:13;;;;;;;58.65;32.53;;;4.50;99.90;;;;;;5003022;28;20064;-75
2022/01/25 00:56:43;;;;;;;59.67;33.25;;;4.50;99.90;;;;;;5004189;28;20038;-75
2022/01/25 00:59:12;;;;;;;53.55;31.27;;;4.50;99.90;;;;;;5003884;28;20168;-75
2022/01/25 01:01:38;;;;;;;59.75;30.10;;;4.50;99.90;;;;;;5005585;28;20034;-75
2022/01/25 01:04:05;;;;;;;51.53;30.50;;;4.50;99.90;;;;;;5006413;28;20535;-75
2022/01/25 01:06:31;;;;;;;58.72;33.97;;;4.40;99.90;;;;;;5003152;28;20064;-75
2022/01/25 01:08:58;;;;;;;59.13;32.50;;;4.50;99.90;;;;;;4990050;28;20041;-75
2022/01/25 01:11:32;;;;;;;58.33;32.25;;;4.40;99.90;;;;;;5007447;28;20038;-75
2022/01/25 01:14:16;;;;;;;64.80;33.03;;;4.40;99.90;;;;;;5006519;28;20163;-75
2022/01/25 01:41:50;;;;;;;59.25;31.80;;;4.40;99.90;;;;;;4987335;28;20053;-75
2022/01/25 01:44:23;;;;;;;54.50;30.60;;;4.40;99.90;;;;;;5004752;28;20048;-75
2022/01/25 01:47:21;;;;;;;58.33;33.20;;;4.40;99.90;;;;;;4994280;28;20128;-75
2022/01/25 01:49:42;;;;;;;52.30;30.50;;;4.40;99.90;;;;;;5023895;28;20077;-75
2022/01/25 01:52:10;;;;;;;65.88;34.08;;;4.40;99.90;;;;;;5023236;28;20025;-75
2022/01/25 01:54:36;;;;;;;53.85;29.80;;;4.40;99.90;;;;;;5008578;28;20549;-75
2022/01/25 01:57:02;;;;;;;56.13;32.47;;;4.40;99.90;;;;;;4976391;28;20117;-75
2022/01/25 01:59:28;;;;;;;57.10;32.63;;;4.50;99.90;;;;;;4997223;28;20041;-75
2022/01/25 02:01:54;;;;;;;59.08;31.17;;;4.50;99.90;;;;;;5009109;28;20048;-74
2022/01/25 02:04:20;;;;;;;62.05;32.38;;;4.50;99.90;;;;;;4997781;28;20041;-75
2022/01/25 02:06:46;;;;;;;53.38;31.85;;;4.50;99.90;;;;;;5010579;28;20041;-75
2022/01/25 02:09:12;;;;;;;53.30;29.65;;;4.50;99.90;;;;;;5010162;28;20045;-75
2022/01/25 02:11:39;;;;;;;53.38;31.83;;;4.50;99.90;;;;;;4996082;28;20082;-75
2022/01/25 02:14:08;;;;;;;61.67;31.75;;;4.50;99.90;;;;;;4997572;28;20042;-75
2022/01/25 02:24:37;;;;;;;54.97;31.90;;;4.50;99.90;;;;;;5028530;28;20230;-75
2022/01/25 02:27:04;;;;;;;56.78;33.92;;;4.40;99.90;;;;;;5014024;28;20338;-75
2022/01/25 02:29:30;;;;;;;65.15;33.22;;;4.40;99.90;;;;;;5007824;28;20041;-75
2022/01/25 02:31:56;;;;;;;63.15;34.88;;;4.50;99.90;;;;;;5016970;28;20067;-74
2022/01/25 02:34:23;;;;;;;51.92;31.15;;;4.40;99.90;;;;;;5011826;28;20049;-75
2022/01/25 02:37:00;;;;;;;58.08;33.30;;;4.40;99.90;;;;;;5011005;28;20041;-75
2022/01/25 02:39:26;;;;;;;62.25;33.80;;;4.40;99.90;;;;;;5012762;28;20034;-75
2022/01/25 02:41:53;;;;;;;58.58;33.15;;;4.40;99.90;;;;;;4985369;28;20431;-75
2022/01/25 02:44:24;;;;;;;58.08;33.40;;;4.40;99.90;;;;;;5013082;28;20048;-75
2022/01/25 02:49:32;;;;;;;59.90;33.42;;;4.40;99.90;;;;;;5012428;28;20511;-75
2022/01/25 02:52:02;;;;;;;59.75;32.95;;;4.40;99.90;;;;;;5010120;28;20131;-75
2022/01/25 02:54:28;;;;;;;56.00;31.75;;;4.30;99.90;;;;;;5009412;28;20436;-75
2022/01/25 02:56:55;;;;;;;52.45;32.22;;;4.30;99.90;;;;;;5013214;28;20103;-75
2022/01/25 02:59:21;;;;;;;56.17;31.88;;;4.30;99.90;;;;;;5018764;28;20041;-75
2022/01/25 03:01:48;;;;;;;58.97;33.65;;;4.30;99.90;;;;;;5013391;28;20045;-75
2022/01/25 03:04:16;;;;;;;56.15;32.78;;;4.40;99.90;;;;;;5011059;28;20096;-75
2022/01/25 03:06:43;;;;;;;57.30;33.38;;;4.40;99.90;;;;;;4994069;28;20037;-75
2022/01/25 03:09:09;;;;;;;59.60;31.63;;;4.40;99.90;;;;;;5008937;28;20037;-75
2022/01/25 03:11:35;;;;;;;61.60;33.42;;;4.40;99.90;;;;;;5025076;28;20109;-75
2022/01/25 03:14:04;;;;;;;51.95;30.73;;;4.40;99.90;;;;;;5010062;28;20034;-75
2022/01/25 03:22:14;;;;;;;51.03;31.08;;;4.40;99.90;;;;;;4995966;28;20159;-75
2022/01/25 03:24:39;;;;;;;50.45;29.98;;;4.40;99.90;;;;;;5012879;28;20076;-75
2022/01/25 03:27:05;;;;;;;56.45;32.28;;;4.40;99.90;;;;;;5027521;28;20083;-75
2022/01/25 03:29:31;;;;;;;57.20;32.17;;;4.40;99.90;;;;;;5003165;28;20029;-75
2022/01/25 03:31:57;;;;;;;50.85;30.95;;;4.40;99.90;;;;;;5024856;28;20057;-75
2022/01/25 03:34:23;;;;;;;53.25;30.90;;;4.40;99.90;;;;;;5013855;28;20148;-74
2022/01/25 03:36:49;;;;;;;53.20;31.58;;;4.40;99.90;;;;;;5028482;28;20171;-75
2022/01/25 03:39:16;;;;;;;63.05;33.13;;;4.40;99.90;;;;;;5008584;28;20120;-75
2022/01/25 03:41:42;;;;;;;59.20;32.20;;;4.30;99.90;;;;;;5009990;28;20033;-75
2022/01/25 03:44:08;;;;;;;55.33;33.15;;;4.40;99.90;;;;;;5014276;28;20076;-74
2022/01/25 03:46:59;;;;;;;58.80;32.67;;;4.40;99.90;;;;;;5009907;28;20029;-75
2022/01/25 03:52:09;;;;;;;56.40;30.67;;;4.40;99.90;;;;;;5032488;28;20409;-75
2022/01/25 03:54:35;;;;;;;57.35;31.58;;;4.40;99.90;;;;;;5009273;28;20245;-75
2022/01/25 03:57:01;;;;;;;63.05;34.60;;;4.40;99.90;;;;;;5009392;28;20044;-75
2022/01/25 03:59:28;;;;;;;57.40;30.25;;;4.40;99.90;;;;;;5012460;28;20041;-75
2022/01/25 04:01:54;;;;;;;59.95;31.90;;;4.40;99.90;;;;;;4998992;28;20049;-75
2022/01/25 04:04:23;;;;;;;65.45;33.78;;;4.30;99.90;;;;;;4993362;28;20038;-75
2022/01/25 04:06:52;;;;;;;61.40;34.83;;;4.30;99.90;;;;;;4986184;28;20037;-75
2022/01/25 04:09:17;;;;;;;57.95;33.53;;;4.30;99.90;;;;;;5028836;28;20056;-75
2022/01/25 04:11:43;;;;;;;60.17;34.30;;;4.30;99.90;;;;;;4993786;28;20041;-75
2022/01/25 04:14:09;;;;;;;55.78;33.63;;;4.30;99.90;;;;;;4991335;28;20034;-75
2022/01/25 04:16:42;;;;;;;57.33;33.42;;;4.30;99.90;;;;;;5009461;28;20045;-75
2022/01/25 04:19:19;;;;;;;57.25;32.17;;;4.30;99.90;;;;;;5010587;28;20425;-74
2022/01/25 04:27:06;;;;;;;58.38;33.35;;;4.30;99.90;;;;;;5001634;28;20115;-74
2022/01/25 04:29:32;;;;;;;56.85;32.33;;;4.30;99.90;;;;;;5006957;28;20175;-75
2022/01/25 04:31:58;;;;;;;57.17;31.98;;;4.30;99.90;;;;;;4992951;28;20095;-75
2022/01/25 04:34:40;;;;;;;63.33;34.13;;;4.30;99.90;;;;;;5009735;28;20041;-75
2022/01/25 04:53:29;;;;;;;59.60;32.60;;;4.20;99.90;;;;;;5008290;28;20115;-74
2022/01/25 04:56:06;;;;;;;55.00;31.25;;;4.20;99.90;;;;;;5009007;28;20091;-75
2022/01/25 04:58:41;;;;;;;63.45;32.17;;;4.30;99.90;;;;;;5013434;28;20045;-74
2022/01/25 05:01:07;;;;;;;62.92;35.17;;;4.20;99.90;;;;;;4994434;28;20125;-75
2022/01/25 05:03:58;;;;;;;57.17;31.65;;;4.30;99.90;;;;;;5014006;28;20124;-75
2022/01/25 05:06:23;;;;;;;64.90;34.08;;;4.30;99.90;;;;;;4993387;28;20178;-75
2022/01/25 05:08:53;;;;;;;57.38;33.35;;;4.30;99.90;;;;;;5002515;28;20032;-75
2022/01/25 05:11:32;;;;;;;59.58;33.33;;;4.30;99.90;;;;;;5003231;28;20049;-75
2022/01/25 05:19:08;;;;;;;59.33;33.40;;;4.30;99.90;;;;;;5005909;28;20245;-75
2022/01/25 05:24:19;;;;;;;57.15;32.08;;;4.30;99.90;;;;;;4988302;28;20513;-74
2022/01/25 05:26:45;;;;;;;56.05;33.63;;;4.30;99.90;;;;;;5011242;28;20160;-75
2022/01/25 05:29:11;;;;;;;61.33;35.55;;;4.30;99.90;;;;;;4989498;28;20049;-74
2022/01/25 05:31:37;;;;;;;63.70;33.97;;;4.30;99.90;;;;;;4999678;28;20070;-75
2022/01/25 05:34:03;;;;;;;65.63;35.45;;;4.30;99.90;;;;;;4975208;28;20548;-75
2022/01/25 05:36:29;;;;;;;59.90;34.10;;;4.30;99.90;;;;;;4989316;28;20119;-75
2022/01/25 05:39:01;;;;;;;54.88;31.73;;;4.30;99.90;;;;;;4991627;28;20034;-74
2022/01/25 05:41:30;;;;;;;58.13;31.75;;;4.20;99.90;;;;;;5007272;28;20133;-74
2022/01/25 05:49:21;;;;;;;55.47;32.13;;;4.30;99.90;;;;;;4976219;28;20042;-75
2022/01/25 05:51:48;;;;;;;62.03;34.47;;;4.30;99.90;;;;;;5014084;28;20046;-74
2022/01/25 05:54:14;;;;;;;56.53;32.47;;;4.20;99.90;;;;;;4994342;28;20355;-75
2022/01/25 05:56:40;;;;;;;57.50;32.00;;;4.20;99.90;;;;;;4979288;28;20033;-75
2022/01/25 05:59:05;;;;;;;64.95;35.78;;;4.20;99.90;;;;;;5019432;28;20034;-75
2022/01/25 06:01:32;;;;;;;60.65;33.40;;;4.30;99.90;;;;;;4999246;28;20034;-74
2022/01/25 06:03:58;;;;;;;59.40;33.67;;;4.30;99.90;;;;;;4995885;28;20339;-75
2022/01/25 06:06:24;;;;;;;58.22;32.53;;;4.30;99.90;;;;;;5001263;28;20505;-75
2022/01/25 06:08:49;;;;;;;50.75;30.38;;;4.30;99.90;;;;;;4998590;28;20677;-75
2022/01/25 06:11:15;;;;;;;57.20;32.47;;;4.30;99.90;;;;;;4973613;28;20154;-74
2022/01/25 06:13:41;;;;;;;57.25;32.28;;;4.30;99.90;;;;;;4984480;28;20075;-75
2022/01/25 06:16:07;;;;;;;66.07;34.17;;;4.30;99.90;;;;;;5004266;28;20129;-74
2022/01/25 06:18:32;;;;;;;61.05;34.92;;;4.30;99.90;;;;;;4994823;28;20042;-74
2022/01/25 06:20:58;;;;;;;63.53;32.78;;;4.30;99.90;;;;;;4997961;28;20046;-75
2022/01/25 06:23:24;;;;;;;65.35;35.33;;;4.30;99.90;;;;;;4980489;28;20136;-75
2022/01/25 06:25:49;;;;;;;59.45;33.20;;;4.30;99.90;;;;;;4991982;28;20528;-74
2022/01/25 06:28:16;;;;;;;62.92;34.30;;;4.40;99.90;;;;;;4989651;28;20122;-74
2022/01/25 06:30:42;;;;;;;66.95;35.45;;;4.30;99.90;;;;;;4993566;28;20045;-74
2022/01/25 06:33:08;;;;;;;55.25;32.63;;;4.30;99.90;;;;;;4981717;28;20048;-74
2022/01/25 06:35:34;;;;;;;59.92;32.63;;;4.30;99.90;;;;;;4996510;28;20045;-74
2022/01/25 06:38:00;;;;;;;61.08;33.95;;;4.30;99.90;;;;;;4996034;28;20076;-74
2022/01/25 06:40:27;;;;;;;66.22;34.47;;;4.30;99.90;;;;;;4995981;28;20038;-74
2022/01/25 06:42:53;;;;;;;53.55;31.63;;;4.30;99.90;;;;;;4973154;28;20054;-77
2022/01/25 06:45:22;;;;;;;63.63;34.20;;;4.30;99.90;;;;;;4979679;28;20498;-74
2022/01/25 06:47:49;;;;;;;67.30;34.63;;;4.30;99.90;;;;;;5012826;28;20494;-74
2022/01/25 06:50:17;;;;;;;65.45;33.95;;;4.30;99.90;;;;;;4989147;28;20042;-74
2022/01/25 06:52:43;;;;;;;59.25;35.45;;;4.30;99.90;;;;;;4991146;28;20178;-75
2022/01/25 06:55:12;;;;;;;62.67;35.65;;;4.30;99.90;;;;;;5017670;28;20038;-74
2022/01/25 06:57:38;;;;;;;66.20;33.72;;;4.30;99.90;;;;;;4993375;28;20034;-74
2022/01/25 07:00:07;;;;;;;55.03;31.70;;;4.30;99.90;;;;;;4990246;28;20177;-74
2022/01/25 07:02:34;;;;;;;57.97;32.30;;;4.30;99.90;;;;;;4991816;28;20030;-74
2022/01/25 07:05:00;;;;;;;58.53;34.28;;;4.30;99.90;;;;;;4994986;28;20474;-75
2022/01/25 07:07:25;;;;;;;58.05;33.88;;;4.30;99.90;;;;;;4989587;28;20052;-74
2022/01/25 07:09:51;;;;;;;60.13;34.50;;;4.30;99.90;;;;;;4974191;28;20029;-77
2022/01/25 07:12:17;;;;;;;52.50;32.13;;;4.30;99.90;;;;;;4995921;28;20124;-75
2022/01/25 07:14:43;;;;;;;51.42;31.77;;;4.30;99.90;;;;;;4979048;28;20489;-75
2022/01/25 07:17:09;;;;;;;60.35;34.33;;;4.30;99.90;;;;;;4993877;28;20117;-74
2022/01/25 07:19:35;;;;;;;54.03;31.17;;;4.40;99.90;;;;;;4999294;28;20347;-74
2022/01/25 07:22:00;;;;;;;60.95;35.85;;;4.40;99.90;;;;;;5012422;28;20136;-74
2022/01/25 07:24:26;;;;;;;65.35;34.47;;;4.30;99.90;;;;;;5008394;28;20099;-74
2022/01/25 07:26:52;;;;;;;70.30;36.83;;;4.30;99.90;;;;;;4991519;28;20695;-74
2022/01/25 07:29:18;;;;;;;58.17;33.38;;;4.30;99.90;;;;;;5013350;28;20398;-74
2022/01/25 07:31:45;;;;;;;57.63;32.35;;;4.30;99.90;;;;;;5012945;28;20084;-74
2022/01/25 07:34:11;;;;;;;69.45;35.40;;;4.30;99.90;;;;;;4996321;28;20454;-74
2022/01/25 07:36:38;;;;;;;56.08;33.03;;;4.30;99.90;;;;;;5017720;28;20037;-74
2022/01/25 07:39:05;;;;;;;62.38;31.50;;;4.30;99.90;;;;;;5013000;28;20029;-73
2022/01/25 07:41:31;;;;;;;59.08;33.40;;;4.30;99.90;;;;;;4990755;28;20454;-74
2022/01/25 07:43:59;;;;;;;59.30;31.67;;;4.30;99.90;;;;;;5016190;28;20045;-73
2022/01/25 07:46:25;;;;;;;62.17;33.78;;;4.30;99.90;;;;;;5010192;28;20060;-74
2022/01/25 07:48:51;;;;;;;65.35;32.50;;;4.30;99.90;;;;;;5011545;28;20036;-74
2022/01/25 07:51:18;;;;;;;66.18;34.35;;;4.20;99.90;;;;;;5003112;28;20045;-73
2022/01/25 07:53:44;;;;;;;68.05;34.42;;;4.30;99.90;;;;;;5011349;28;20367;-74
2022/01/25 07:56:10;;;;;;;63.13;34.88;;;4.30;99.90;;;;;;5010644;28;20437;-74
2022/01/25 07:58:36;;;;;;;61.40;33.78;;;4.30;99.90;;;;;;4976102;28;20452;-73
2022/01/25 08:01:03;;;;;;;57.78;34.35;;;4.30;99.90;;;;;;4997729;28;20072;-73
2022/01/25 08:03:29;;;;;;;67.95;34.20;;;4.30;99.90;;;;;;5012184;28;20041;-73
2022/01/25 08:05:55;;;;;;;64.88;34.45;;;4.30;99.90;;;;;;5012337;28;20049;-73
2022/01/25 08:08:21;;;;;;;58.70;33.97;;;4.30;99.90;;;;;;4995177;28;20124;-73
2022/01/25 08:10:47;;;;;;;66.15;35.08;;;4.20;99.90;;;;;;4997159;28;20128;-74
2022/01/25 08:13:12;;;;;;;59.95;33.03;;;4.30;99.90;;;;;;5010852;28;20459;-73
2022/01/25 08:15:38;;;;;;;61.50;34.50;;;4.30;99.90;;;;;;5015806;28;20044;-74
2022/01/25 08:18:04;;;;;;;60.80;33.60;;;4.30;99.90;;;;;;5010204;28;20079;-79
2022/01/25 08:20:30;;;;;;;60.88;34.25;;;4.20;99.90;;;;;;5021232;28;20058;-79
2022/01/25 08:22:56;;;;;;;65.97;33.20;;;4.30;99.90;;;;;;5007051;28;20132;-80
2022/01/25 08:25:22;;;;;;;62.58;33.22;;;4.30;99.90;;;;;;4984410;28;20052;-80
2022/01/25 08:27:48;;;;;;;66.70;35.03;;;4.30;99.90;;;;;;4991843;28;20052;-79
2022/01/25 08:30:15;;;;;;;55.78;31.90;;;4.20;99.90;;;;;;4976716;28;20030;-80
2022/01/25 08:32:41;;;;;;;60.33;33.10;;;4.20;99.90;;;;;;4992197;28;20045;-80
2022/01/25 08:35:07;;;;;;;56.15;31.77;;;4.20;99.90;;;;;;4992243;28;20124;-81
2022/01/25 08:37:33;;;;;;;70.65;34.30;;;4.30;99.90;;;;;;4976332;28;20050;-80
2022/01/25 08:39:59;;;;;;;66.65;34.97;;;4.30;99.90;;;;;;5002166;28;20053;-80
2022/01/25 08:42:25;;;;;;;68.00;35.00;;;4.20;99.90;;;;;;4994218;28;20037;-80
2022/01/25 08:44:51;;;;;;;57.63;31.55;;;4.20;99.90;;;;;;4972845;28;20117;-79
2022/01/25 08:47:17;;;;;;;58.92;35.05;;;4.30;99.90;;;;;;4988562;28;20042;-80
2022/01/25 08:49:43;;;;;;;65.45;35.00;;;4.30;99.90;;;;;;4990680;28;20494;-80
2022/01/25 08:52:09;;;;;;;63.25;34.08;;;4.30;99.90;;;;;;5007435;28;20394;-81
2022/01/25 08:54:35;;;;;;;60.20;33.35;;;4.20;99.90;;;;;;4990086;28;20149;-79
2022/01/25 08:57:01;;;;;;;66.93;36.33;;;4.20;99.90;;;;;;4991948;28;20045;-79
2022/01/25 08:59:28;;;;;;;67.55;35.65;;;4.20;99.90;;;;;;5003504;28;20120;-79
2022/01/25 09:01:54;;;;;;;70.75;36.10;;;4.20;99.90;;;;;;4989569;28;20125;-80
2022/01/25 09:04:20;;;;;;;63.67;35.20;;;4.30;99.90;;;;;;4976125;28;20060;-79
2022/01/25 09:06:46;;;;;;;65.30;34.95;;;4.30;99.90;;;;;;5007289;28;20455;-79
2022/01/25 09:09:11;;;;;;;58.03;34.15;;;4.20;99.90;;;;;;5005332;28;20042;-78
2022/01/25 09:11:41;;;;;;;59.92;34.20;;;4.30;99.90;;;;;;4986226;28;20042;-77
2022/01/25 09:14:08;;;;;;;70.88;37.45;;;4.30;99.90;;;;;;5003881;28;20054;-77
2022/01/25 09:16:35;;;;;;;63.25;34.35;;;4.30;99.90;;;;;;5005886;28;20041;-77
2022/01/25 09:19:01;;;;;;;66.15;34.97;;;4.30;99.90;;;;;;5007703;28;20030;-77
2022/01/25 09:21:27;;;;;;;64.32;35.72;;;4.30;99.90;;;;;;4994748;28;20061;-76
2022/01/25 09:23:54;;;;;;;70.55;35.58;;;4.30;99.90;;;;;;4975722;28;20038;-77
2022/01/25 09:26:22;;;;;;;70.63;34.58;;;4.30;99.90;;;;;;4993551;28;20034;-77
2022/01/25 09:28:49;;;;;;;56.15;33.15;;;4.30;99.90;;;;;;4999637;28;20042;-77
2022/01/25 09:31:16;;;;;;;59.63;32.35;;;4.30;99.90;;;;;;4995563;28;20038;-76
2022/01/25 09:33:42;;;;;;;63.92;34.83;;;4.30;99.90;;;;;;4991925;28;20125;-77
2022/01/25 09:36:08;;;;;;;65.65;35.17;;;4.30;99.90;;;;;;4995778;28;20141;-74
2022/01/25 09:38:33;;;;;;;65.35;36.40;;;4.30;99.90;;;;;;4994670;28;20620;-73
2022/01/25 09:40:59;;;;;;;65.88;35.42;;;4.30;99.90;;;;;;4990637;28;20034;-73
2022/01/25 09:43:26;;;;;;;59.60;34.42;;;4.30;99.90;;;;;;4969506;28;20041;-73
2022/01/25 09:45:52;;;;;;;60.33;33.17;;;4.30;99.90;;;;;;4994601;28;20045;-74
2022/01/25 09:48:18;;;;;;;65.75;35.33;;;4.30;99.90;;;;;;5005426;28;20049;-74
2022/01/25 09:50:44;;;;;;;63.28;35.05;;;4.30;99.90;;;;;;4978288;28;20441;-75
2022/01/25 09:53:10;;;;;;;68.40;35.45;;;4.30;99.90;;;;;;5007680;28;20076;-76
2022/01/25 09:55:41;;;;;;;63.03;36.00;;;4.30;99.90;;;;;;5009240;28;20495;-76
2022/01/25 09:58:10;;;;;;;64.70;34.92;;;4.30;99.90;;;;;;5009067;28;20045;-76
2022/01/25 10:00:39;;;;;;;58.75;34.22;;;4.40;99.90;;;;;;4989717;28;20053;-76
2022/01/25 10:03:16;;;;;;;62.60;35.53;;;4.40;99.90;;;;;;4991408;28;20768;-77
2022/01/25 10:05:45;;;;;;;65.90;35.83;;;4.40;99.90;;;;;;4991686;28;20041;-77
2022/01/25 10:08:25;;;;;;;70.35;35.58;;;4.40;99.90;;;;;;5008486;28;20363;-77
2022/01/25 10:10:56;;;;;;;69.70;35.30;;;4.40;99.90;;;;;;5010988;28;20062;-77
2022/01/25 10:13:34;;;;;;;64.80;34.90;;;4.30;99.90;;;;;;5014420;28;20041;-77
2022/01/25 10:16:02;;;;;;;67.45;34.25;;;4.30;99.90;;;;;;4992585;28;20139;-77
2022/01/25 10:18:48;;;;;;;62.78;36.03;;;4.40;99.90;;;;;;4978930;28;20496;-79
2022/01/25 10:21:29;;;;;;;59.50;33.45;;;4.40;99.90;;;;;;4981291;28;20053;-77
2022/01/25 10:24:12;;;;;;;61.25;34.63;;;4.40;99.90;;;;;;4999726;28;20068;-80
2022/01/25 10:26:47;;;;;;;62.30;33.70;;;4.40;99.90;;;;;;5011779;28;20041;-75
2022/01/25 10:29:23;;;;;;;65.55;34.70;;;4.30;99.90;;;;;;5011556;28;20068;-79
2022/01/25 10:31:53;;;;;;;67.13;34.83;;;4.30;99.90;;;;;;4984620;28;20107;-75
2022/01/25 10:34:24;;;;;;;68.63;36.38;;;4.30;99.90;;;;;;5014483;28;20073;-75
2022/01/25 10:36:51;;;;;;;82.13;38.17;;;4.30;99.90;;;;;;5010610;28;20041;-77
2022/01/25 10:39:27;;;;;;;71.35;40.17;;;4.30;99.90;;;;;;5032146;28;20346;-75
2022/01/25 10:42:12;;;;;;;63.70;37.28;;;4.30;99.90;;;;;;5017993;28;20088;-75
2022/01/25 10:45:17;;;;;;;60.15;34.95;;;4.30;99.90;;;;;;5012936;28;20125;-75
2022/01/25 10:47:44;;;;;;;61.15;32.88;;;4.40;99.90;;;;;;5023703;28;20034;-76
2022/01/25 10:50:23;;;;;;;70.53;34.90;;;4.40;99.90;;;;;;4989236;28;20092;-76
2022/01/25 10:53:07;;;;;;;64.25;35.30;;;4.40;99.90;;;;;;5008177;28;20041;-76
2022/01/25 10:55:37;;;;;;;75.95;37.72;;;4.40;99.90;;;;;;5023764;28;20147;-76
2022/01/25 10:58:03;;;;;;;65.53;37.13;;;4.40;99.90;;;;;;5007156;28;20045;-76
2022/01/25 11:00:41;;;;;;;66.30;34.78;;;4.40;99.90;;;;;;5009229;28;20033;-75
2022/01/25 11:03:07;;;;;;;61.22;35.30;;;4.40;99.90;;;;;;5013403;28;20037;-75
2022/01/25 11:05:36;;;;;;;63.95;35.85;;;4.40;99.90;;;;;;5008652;28;20432;-76
2022/01/25 11:08:17;;;;;;;69.55;36.08;;;4.40;99.90;;;;;;4990479;28;20131;-75
2022/01/25 11:10:52;;;;;;;62.90;35.90;;;4.40;99.90;;;;;;5024464;28;20414;-75
2022/01/25 11:15:58;;;;;;;66.80;35.85;;;4.40;99.90;;;;;;5005601;28;20084;-74
2022/01/25 11:18:25;;;;;;;69.60;37.40;;;4.40;99.90;;;;;;5005499;28;20045;-78
2022/01/25 11:20:52;;;;;;;66.82;33.90;;;4.30;99.90;;;;;;4990551;28;20410;-75
2022/01/25 11:23:19;;;;;;;71.70;37.85;;;4.40;99.90;;;;;;5004104;28;20382;-74
2022/01/25 11:25:46;;;;;;;70.10;37.72;;;4.40;99.90;;;;;;5010907;28;20516;-87
2022/01/25 11:28:13;;;;;;;68.05;38.35;;;4.40;99.90;;;;;;4995291;28;20080;-75
2022/01/25 11:30:40;;;;;;;78.50;37.30;;;4.40;99.90;;;;;;4974001;28;20040;-75
2022/01/25 11:33:09;;;;;;;67.75;36.83;;;4.40;99.90;;;;;;5007888;28;20033;-75
2022/01/25 11:35:36;;;;;;;74.28;37.08;;;4.40;99.90;;;;;;5007967;28;20346;-75
2022/01/25 11:38:03;;;;;;;74.70;38.90;;;4.40;99.90;;;;;;4989514;28;20111;-75
2022/01/25 11:40:31;;;;;;;66.70;35.97;;;4.40;99.90;;;;;;5006892;28;20474;-75
2022/01/25 11:43:03;;;;;;;60.63;33.58;;;4.40;99.90;;;;;;4992734;28;20034;-75
2022/01/25 11:45:38;;;;;;;64.93;34.55;;;4.40;99.90;;;;;;4991317;28;20049;-75
2022/01/25 11:48:06;;;;;;;78.43;38.20;;;4.40;99.90;;;;;;5008071;28;20052;-75
2022/01/25 11:50:34;;;;;;;69.75;36.92;;;4.40;99.90;;;;;;4976496;28;20096;-75
2022/01/25 11:53:08;;;;;;;61.75;35.95;;;4.40;99.90;;;;;;4991331;28;20516;-77
2022/01/25 11:55:36;;;;;;;76.70;34.70;;;4.40;99.90;;;;;;5025259;28;20052;-74
2022/01/25 11:58:06;;;;;;;71.75;35.22;;;4.40;99.90;;;;;;5010131;28;20125;-74
2022/01/25 12:00:53;;;;;;;61.10;35.33;;;4.40;99.90;;;;;;5005722;28;20324;-74
2022/01/25 12:03:33;;;;;;;68.15;37.33;;;4.40;99.90;;;;;;5002246;28;20041;-74
2022/01/25 12:06:24;;;;;;;64.90;34.97;;;4.40;99.90;;;;;;5006478;28;20037;-76
2022/01/25 12:11:51;;;;;;;71.18;39.13;;;4.40;99.90;;;;;;5022316;28;20374;-77
2022/01/25 12:14:18;;;;;;;68.43;36.97;;;4.40;99.90;;;;;;4989146;28;20068;-76
2022/01/25 12:16:47;;;;;;;63.75;35.90;;;4.40;99.90;;;;;;5010709;28;20472;-82
2022/01/25 12:19:18;;;;;;;70.15;38.83;;;4.40;99.90;;;;;;5013172;28;20381;-82
2022/01/25 12:21:52;;;;;;;67.55;37.67;;;4.40;99.90;;;;;;5010118;28;20052;-84
2022/01/25 12:24:21;;;;;;;71.35;36.10;;;4.40;99.90;;;;;;5007604;28;20056;-82
2022/01/25 12:27:23;;;;;;;70.20;35.80;;;4.40;99.90;;;;;;5011338;28;20052;-82
2022/01/25 12:29:58;;;;;;;69.57;36.05;;;4.40;99.90;;;;;;5010696;28;20788;-84
2022/01/25 12:32:28;;;;;;;66.10;37.85;;;4.40;99.90;;;;;;4996440;28;20033;-84
2022/01/25 12:35:18;;;;;;;65.35;34.80;;;4.40;99.90;;;;;;5011828;28;20096;-83
2022/01/25 12:37:53;;;;;;;69.60;34.95;;;4.40;99.90;;;;;;5008171;28;20041;-82
2022/01/25 12:40:24;;;;;;;71.40;37.60;;;4.40;99.90;;;;;;5010810;28;20124;-83
2022/01/25 12:43:14;;;;;;;65.53;35.25;;;4.40;99.90;;;;;;5012086;28;20029;-83
2022/01/25 12:45:55;;;;;;;66.68;34.83;;;4.40;99.90;;;;;;5005851;28;20037;-83
2022/01/25 12:48:31;;;;;;;71.90;36.63;;;4.40;99.90;;;;;;5011734;28;20466;-82
2022/01/25 12:51:01;;;;;;;68.85;38.80;;;4.40;99.90;;;;;;5008949;28;20757;-83
2022/01/25 12:53:30;;;;;;;65.15;35.28;;;4.40;99.90;;;;;;5005928;28;20053;-83
2022/01/25 12:55:59;;;;;;;70.60;38.22;;;4.40;99.90;;;;;;5011933;28;20119;-82
2022/01/25 12:58:29;;;;;;;61.83;35.42;;;4.40;99.90;;;;;;5009015;28;20048;-82
2022/01/25 13:00:58;;;;;;;69.05;36.83;;;4.40;99.90;;;;;;5026796;28;20084;-82
2022/01/25 13:03:34;;;;;;;75.28;36.95;;;4.40;99.90;;;;;;5008630;28;20075;-89
2022/01/25 13:06:13;;;;;;;66.70;36.97;;;4.40;99.90;;;;;;5006736;28;20076;-82
2022/01/25 13:08:47;;;;;;;69.80;34.38;;;4.40;99.90;;;;;;5023983;28;20753;-84
2022/01/25 13:12:10;;;;;;;66.78;36.40;;;4.40;99.90;;;;;;5005368;28;20342;-84
2022/01/25 13:17:06;;;;;;;72.53;35.80;;;4.40;99.90;;;;;;5006494;28;20077;-83
2022/01/25 13:19:43;;;;;;;72.18;35.03;;;4.40;99.90;;;;;;5006152;28;20041;-75
2022/01/25 13:22:14;;;;;;;78.45;36.85;;;4.40;99.90;;;;;;5005200;28;20054;-75
2022/01/25 13:24:55;;;;;;;74.88;37.30;;;4.40;99.90;;;;;;5005675;28;20041;-75
2022/01/25 13:27:22;;;;;;;73.07;36.83;;;4.40;99.90;;;;;;5004299;28;20052;-75
2022/01/25 13:32:37;;;;;;;76.30;35.65;;;4.40;99.90;;;;;;5023960;28;20060;-74
2022/01/25 13:35:27;;;;;;;72.25;36.85;;;4.40;99.90;;;;;;5006901;28;20500;-74
2022/01/25 13:38:05;;;;;;;77.07;38.38;;;4.40;99.90;;;;;;5003749;28;20053;-75
2022/01/25 13:45:57;;;;;;;73.30;37.63;;;4.40;99.90;;;;;;5004946;28;20390;-75
2022/01/25 13:48:26;;;;;;;66.38;37.45;;;4.40;99.90;;;;;;5009362;28;20045;-83
2022/01/25 13:50:58;;;;;;;76.60;37.15;;;4.40;99.90;;;;;;5010167;28;20049;-83
2022/01/25 13:53:25;;;;;;;72.40;36.20;;;4.40;99.90;;;;;;5009031;28;20120;-83
2022/01/25 13:55:53;;;;;;;70.30;35.25;;;4.40;99.90;;;;;;5010754;28;20056;-83
2022/01/25 13:58:26;;;;;;;75.30;38.25;;;4.40;99.90;;;;;;5009981;28;20446;-83
2022/01/25 14:00:54;;;;;;;64.65;36.30;;;4.40;99.90;;;;;;5012844;28;20045;-83
2022/01/25 14:03:25;;;;;;;77.32;38.92;;;4.40;99.90;;;;;;5011697;28;20351;-83
2022/01/25 14:05:51;;;;;;;79.22;37.65;;;4.30;99.90;;;;;;5010122;28;20038;-83
2022/01/25 14:08:17;;;;;;;70.97;37.80;;;4.40;99.90;;;;;;4997187;28;20033;-83
2022/01/25 14:10:47;;;;;;;73.40;38.80;;;4.30;99.90;;;;;;4999645;28;20037;-83
2022/01/25 14:24:06;;;;;;;69.32;37.65;;;4.40;99.90;;;;;;5023845;28;20042;-81
2022/01/25 14:26:32;;;;;;;72.28;35.80;;;4.40;99.90;;;;;;5009980;28;20120;-83
2022/01/25 14:29:12;;;;;;;66.20;36.75;;;4.40;99.90;;;;;;5009589;28;20125;-83
2022/01/25 14:31:43;;;;;;;84.05;40.08;;;4.40;99.90;;;;;;5010962;28;20042;-83
2022/01/25 14:34:11;;;;;;;74.53;36.40;;;4.40;99.90;;;;;;5032680;28;20041;-83
2022/01/25 14:36:46;;;;;;;77.30;39.40;;;4.30;99.90;;;;;;5008699;28;20038;-83
2022/01/25 14:39:15;;;;;;;75.15;37.72;;;4.30;99.90;;;;;;5010807;28;20069;-82
2022/01/25 14:41:41;;;;;;;61.78;36.17;;;4.30;99.90;;;;;;5009965;28;20485;-83
2022/01/25 14:44:10;;;;;;;74.05;37.85;;;4.30;99.90;;;;;;5009353;28;20095;-76
2022/01/25 14:46:45;;;;;;;75.90;40.70;;;4.30;99.90;;;;;;5023262;28;20049;-77
2022/01/25 14:49:19;;;;;;;72.95;37.80;;;4.40;99.90;;;;;;5010197;28;20037;-77
2022/01/25 14:51:54;;;;;;;69.30;37.83;;;4.40;99.90;;;;;;5006038;28;20073;-77
2022/01/25 14:54:22;;;;;;;70.85;37.28;;;4.30;99.90;;;;;;5003095;28;20136;-77
2022/01/25 14:56:52;;;;;;;77.70;40.53;;;4.30;99.90;;;;;;4973403;28;20042;-77
2022/01/25 15:01:54;;;;;;;74.65;38.40;;;4.30;99.90;;;;;;5021887;28;20042;-77